Time;durP1;ratioP1;P1;durP2;ratioP2;P2;SDS_P1;SDS_P2;PMS_P1;PMS_P2;Temp;Humidity;BMP_temperature;BMP_pressure;BME280_temperature;BME280_humidity;BME280_pressure;Samples;Min_cycle;Max_cycle;Signal;HPM_P1;HPM_P2
2023/09/02 00:02:22;;;;;;;4.30;3.90;;;;;;;23.19;60.74;98488.66;5033861;28;20181;-58
2023/09/02 00:04:48;;;;;;;6.03;4.40;;;;;;;23.32;60.50;98517.06;5051276;28;20186;-58
2023/09/02 00:07:13;;;;;;;6.07;3.72;;;;;;;23.29;60.13;98501.56;5051409;28;20627;-57
2023/09/02 00:09:39;;;;;;;4.45;3.75;;;;;;;23.28;59.84;98499.94;5051026;28;20730;-58
2023/09/02 00:12:06;;;;;;;5.28;4.15;;;;;;;23.27;60.04;98501.78;5051289;28;20177;-58
2023/09/02 00:14:32;;;;;;;5.22;4.20;;;;;;;23.35;60.66;98504.31;5051207;28;20301;-57
2023/09/02 00:16:57;;;;;;;5.55;4.50;;;;;;;23.38;60.52;98518.97;5051229;28;20953;-57
2023/09/02 00:19:23;;;;;;;5.07;4.57;;;;;;;23.26;60.50;98476.34;5051194;28;20207;-57
2023/09/02 00:21:48;;;;;;;4.47;4.00;;;;;;;23.54;60.45;98526.72;5051131;28;20185;-57
2023/09/02 00:24:13;;;;;;;5.32;4.20;;;;;;;23.02;61.25;98489.78;5051005;28;20181;-57
2023/09/02 00:26:39;;;;;;;5.63;4.40;;;;;;;23.04;62.00;98508.09;5050917;28;20173;-57
2023/09/02 00:29:04;;;;;;;5.50;5.00;;;;;;;23.11;61.99;98503.72;5050408;28;20575;-57
2023/09/02 00:31:30;;;;;;;5.38;4.47;;;;;;;23.11;61.92;98499.28;5050947;28;20186;-57
2023/09/02 00:33:56;;;;;;;4.63;4.05;;;;;;;22.86;61.85;98491.78;5034031;28;20264;-58
2023/09/02 00:36:21;;;;;;;6.45;4.68;;;;;;;22.95;62.50;98525.03;5037680;28;20255;-58
2023/09/02 00:38:48;;;;;;;4.93;4.13;;;;;;;22.89;62.79;98513.34;5033383;28;20200;-58
2023/09/02 00:41:22;;;;;;;7.15;4.35;;;;;;;22.96;62.73;98521.38;5033324;28;20169;-59
2023/09/02 00:43:47;;;;;;;4.47;3.92;;;;;;;22.81;62.32;98492.34;5033275;28;20256;-59
2023/09/02 00:46:13;;;;;;;6.72;4.45;;;;;;;22.89;62.79;98502.78;5033474;28;20397;-58
2023/09/02 00:48:38;;;;;;;4.70;4.22;;;;;;;22.97;63.03;98526.47;5033048;28;20209;-58
2023/09/02 00:51:04;;;;;;;5.93;4.28;;;;;;;22.94;62.69;98508.34;5032809;28;20272;-58
2023/09/02 00:53:29;;;;;;;4.60;4.20;;;;;;;22.91;62.84;98492.88;5033092;28;20174;-58
2023/09/02 00:55:55;;;;;;;6.25;4.43;;;;;;;22.76;62.84;98475.38;5033027;28;20181;-58
2023/09/02 00:58:20;;;;;;;5.00;4.43;;;;;;;23.02;62.82;98520.66;5032758;28;20324;-58
2023/09/02 01:00:47;;;;;;;4.75;4.32;;;;;;;22.97;62.39;98501.91;5033005;28;20728;-59
2023/09/02 01:03:14;;;;;;;4.57;4.07;;;;;;;22.88;62.54;98492.41;5032965;28;20177;-59
2023/09/02 01:05:40;;;;;;;5.40;4.15;;;;;;;22.96;61.96;98501.06;5032836;28;20546;-59
2023/09/02 01:08:06;;;;;;;4.78;4.18;;;;;;;23.01;62.35;98508.47;5032755;28;20566;-59
2023/09/02 01:10:35;;;;;;;6.45;4.07;;;;;;;23.07;62.26;98523.59;5029985;28;20216;-59
2023/09/02 01:13:02;;;;;;;8.50;4.72;;;;;;;22.95;63.05;98511.84;5030260;28;20607;-58
2023/09/02 01:15:27;;;;;;;6.72;4.65;;;;;;;22.79;63.09;98496.16;5030171;28;20763;-59
2023/09/02 01:17:53;;;;;;;8.75;4.80;;;;;;;22.62;64.29;98498.09;5030122;28;20178;-59
2023/09/02 01:20:21;;;;;;;7.20;4.88;;;;;;;22.83;64.30;98532.53;5030435;28;20247;-59
2023/09/02 01:22:59;;;;;;;7.28;4.60;;;;;;;;;;5010092;28;20194;-59
2023/09/02 01:25:59;;;;;;;6.60;4.57;;;;;;;22.69;64.32;98529.88;5010168;28;20666;-59
2023/09/02 01:28:30;;;;;;;4.43;3.85;;;;;;;22.43;64.19;98492.47;5010182;28;20626;-59
2023/09/02 01:30:55;;;;;;;5.63;4.57;;;;;;;22.55;64.05;98501.63;5010173;28;20233;-59
2023/09/02 01:33:25;;;;;;;5.70;4.00;;;;;;;22.60;64.04;98531.75;5010091;28;20262;-59
2023/09/02 01:35:52;;;;;;;4.82;4.32;;;;;;;22.51;64.61;98510.91;5009942;28;20248;-59
2023/09/02 01:38:21;;;;;;;7.13;5.15;;;;;;;22.55;65.21;98523.53;5010001;28;20234;-59
2023/09/02 01:40:50;;;;;;;7.82;4.80;;;;;;;22.40;65.40;98503.38;5009389;28;20281;-59
2023/09/02 01:43:20;;;;;;;7.25;5.20;;;;;;;22.28;66.19;98500.34;5009967;28;20278;-58
2023/09/02 01:45:46;;;;;;;5.72;4.93;;;;;;;22.25;66.06;98492.78;5009886;28;20183;-59
2023/09/02 01:48:12;;;;;;;5.30;4.55;;;;;;;22.30;66.58;98513.31;5009787;28;20222;-59
2023/09/02 01:50:39;;;;;;;5.65;4.95;;;;;;;22.21;66.09;98494.09;5009788;28;20257;-59
2023/09/02 01:53:05;;;;;;;8.05;4.78;;;;;;;22.50;65.10;98525.88;5014423;28;20293;-59
2023/09/02 01:55:32;;;;;;;5.25;4.32;;;;;;;22.31;65.02;98486.78;5031993;28;20173;-59
2023/09/02 01:57:59;;;;;;;4.60;4.20;;;;;;;22.32;64.96;98490.25;5031858;28;20177;-59
2023/09/02 02:00:25;;;;;;;7.43;5.28;;;;;;;22.41;65.50;98505.00;5031919;28;20186;-59
2023/09/02 02:02:53;;;;;;;5.82;4.63;;;;;;;22.54;66.13;98527.19;5031502;28;20271;-59
2023/09/02 02:05:30;;;;;;;9.68;5.25;;;;;;;22.51;66.21;98529.34;5031726;28;20170;-59
2023/09/02 02:07:58;;;;;;;5.00;4.60;;;;;;;22.33;66.07;98497.16;5031964;28;20537;-59
2023/09/02 02:10:28;;;;;;;6.50;5.18;;;;;;;22.32;66.14;98495.53;5031786;28;20205;-59
2023/09/02 02:12:54;;;;;;;7.30;5.30;;;;;;;22.35;67.05;98516.25;5031640;28;20174;-59
2023/09/02 02:15:20;;;;;;;7.93;5.45;;;;;;;22.33;67.69;98523.53;5031502;28;20178;-59
2023/09/02 02:17:45;;;;;;;9.10;5.60;;;;;;;22.18;67.40;98506.81;5031518;28;20227;-59
2023/09/02 02:20:11;;;;;;;9.48;5.00;;;;;;;22.24;67.55;98529.84;5031493;28;20691;-59
2023/09/02 02:22:37;;;;;;;6.90;4.97;;;;;;;22.13;67.46;98512.63;5028813;28;20573;-59
2023/09/02 02:25:02;;;;;;;8.02;5.05;;;;;;;22.22;68.06;98518.66;5028913;28;20251;-59
2023/09/02 02:27:28;;;;;;;6.10;5.50;;;;;;;22.19;68.48;98522.47;5028970;28;20569;-59
2023/09/02 02:29:53;;;;;;;8.20;5.38;;;;;;;22.25;67.76;98520.97;5028894;28;20242;-59
2023/09/02 02:32:19;;;;;;;6.47;4.85;;;;;;;22.00;67.68;98485.19;5029106;28;20194;-59
2023/09/02 02:34:44;;;;;;;6.93;4.13;;;;;;;22.30;65.90;98521.22;5028848;28;20700;-58
2023/09/02 02:37:10;;;;;;;5.15;4.50;;;;;;;22.34;65.31;98523.38;5028951;28;20577;-58
2023/09/02 02:39:35;;;;;;;5.57;4.13;;;;;;;22.43;65.54;98529.41;5028777;28;20192;-58
2023/09/02 02:42:01;;;;;;;10.20;4.82;;;;;;;22.31;66.38;98515.00;5028683;28;20596;-58
2023/09/02 02:44:26;;;;;;;5.22;4.50;;;;;;;22.17;66.77;98486.72;5028716;28;20178;-58
2023/09/02 02:46:51;;;;;;;6.60;5.38;;;;;;;22.18;67.38;98498.91;5028682;28;20205;-58
2023/09/02 02:49:17;;;;;;;5.75;5.18;;;;;;;22.32;66.96;98513.97;5028556;28;20241;-58
2023/09/02 02:51:45;;;;;;;5.63;5.13;;;;;;;22.40;66.49;98506.00;5028440;28;20260;-58
2023/09/02 02:54:10;;;;;;;5.47;4.93;;;;;;;22.38;66.39;98495.63;5030164;28;20197;-58
2023/09/02 02:56:36;;;;;;;6.93;4.07;;;;;;;22.32;63.88;98485.78;5030967;28;20624;-58
2023/09/02 02:59:01;;;;;;;6.68;4.30;;;;;;;22.47;62.99;98520.97;5031027;28;20562;-58
2023/09/02 03:01:27;;;;;;;4.32;3.80;;;;;;;22.37;63.73;98511.66;5031017;28;20715;-58
2023/09/02 03:03:52;;;;;;;4.95;3.70;;;;;;;22.24;63.85;98498.22;5030607;28;20232;-57
2023/09/02 03:06:21;;;;;;;3.65;3.35;;;;;;;22.39;62.82;98512.28;5030920;28;20617;-58
2023/09/02 03:08:46;;;;;;;4.85;4.30;;;;;;;22.27;64.23;98503.94;5047997;28;20713;-58
2023/09/02 03:11:12;;;;;;;4.70;4.25;;;;;;;22.37;64.50;98511.66;5048209;28;20209;-58
2023/09/02 03:13:38;;;;;;;4.40;3.92;;;;;;;22.28;64.49;98510.06;5048231;28;20228;-58
2023/09/02 03:16:04;;;;;;;5.40;4.57;;;;;;;22.33;64.63;98507.72;5048242;28;20209;-58
2023/09/02 03:18:30;;;;;;;6.47;4.85;;;;;;;22.27;64.96;98503.94;5048248;28;20604;-58
2023/09/02 03:21:06;;;;;;;6.15;4.63;;;;;;;22.29;65.12;98514.31;5048140;28;20173;-58
2023/09/02 03:23:35;;;;;;;4.75;4.30;;;;;;;22.20;65.15;98496.94;5048151;28;20618;-58
2023/09/02 03:26:07;;;;;;;8.13;4.30;;;;;;;22.19;64.82;98500.53;5047955;28;20185;-58
2023/09/02 03:28:33;;;;;;;5.95;4.35;;;;;;;22.23;64.88;98507.94;5047949;28;20270;-58
2023/09/02 03:31:07;;;;;;;4.47;3.85;;;;;;;22.07;65.44;98496.69;5048027;28;20181;-58
2023/09/02 03:33:32;;;;;;;4.20;3.88;;;;;;;22.15;65.13;98523.81;5048089;28;20180;-58
2023/09/02 03:35:59;;;;;;;3.92;3.60;;;;;;;22.12;65.58;98518.91;5047894;28;20188;-58
2023/09/02 03:38:24;;;;;;;9.20;3.97;;;;;;;22.00;65.51;98504.47;5047967;28;20181;-58
2023/09/02 03:40:49;;;;;;;6.10;4.05;;;;;;;22.05;65.93;98520.59;5031284;28;20186;-58
2023/09/02 03:43:15;;;;;;;4.70;4.28;;;;;;;22.12;66.20;98525.97;5027868;28;20221;-59
2023/09/02 03:45:40;;;;;;;6.15;4.22;;;;;;;22.01;66.26;98519.28;5047670;28;20189;-59
2023/09/02 03:48:06;;;;;;;6.13;4.88;;;;;;;21.77;67.02;98493.09;5047779;28;20269;-59
2023/09/02 03:50:31;;;;;;;4.47;4.05;;;;;;;21.86;67.35;98522.84;5027745;28;20247;-58
2023/09/02 03:53:00;;;;;;;4.45;3.92;;;;;;;21.71;67.48;98495.56;5027877;28;20182;-58
2023/09/02 03:55:25;;;;;;;5.13;3.85;;;;;;;21.98;66.50;98538.06;5028082;28;20598;-58
2023/09/02 03:57:50;;;;;;;5.05;4.35;;;;;;;21.82;65.95;98511.84;5027904;28;20273;-58
2023/09/02 04:00:17;;;;;;;3.50;3.20;;;;;;;22.03;65.37;98538.38;5027829;28;20243;-58
2023/09/02 04:02:42;;;;;;;2.97;2.78;;;;;;;21.91;64.68;98517.88;5027897;28;20588;-58
2023/09/02 04:05:08;;;;;;;3.28;2.97;;;;;;;21.93;64.07;98526.41;5029990;28;20198;-59
2023/09/02 04:07:33;;;;;;;3.25;3.03;;;;;;;21.89;63.99;98519.84;5031566;28;20611;-58
2023/09/02 04:09:59;;;;;;;3.40;2.67;;;;;;;21.98;64.38;98537.28;5031155;28;20703;-58
2023/09/02 04:12:24;;;;;;;7.53;4.18;;;;;;;21.88;65.18;98529.59;5031648;28;20573;-58
2023/09/02 04:14:50;;;;;;;6.40;4.53;;;;;;;21.76;66.56;98514.31;5031285;28;20275;-58
2023/09/02 04:17:16;;;;;;;4.90;4.40;;;;;;;21.66;67.72;98508.41;5016411;28;20290;-58
2023/09/02 04:19:42;;;;;;;5.05;4.55;;;;;;;21.77;68.26;98537.88;5011479;28;20688;-58
2023/09/02 04:22:07;;;;;;;5.00;4.50;;;;;;;21.73;67.81;98533.94;5028119;28;20178;-58
2023/09/02 04:24:33;;;;;;;5.70;4.55;;;;;;;21.76;67.81;98540.66;5033679;28;20182;-58
2023/09/02 04:26:59;;;;;;;5.50;4.20;;;;;;;21.78;67.64;98543.94;5033901;28;20185;-58
2023/09/02 04:29:24;;;;;;;4.97;4.25;;;;;;;21.58;67.82;98522.47;5033539;28;20724;-58
2023/09/02 04:31:52;;;;;;;5.10;4.60;;;;;;;21.54;68.32;98525.56;5030985;28;20277;-58
2023/09/02 04:34:18;;;;;;;5.25;4.43;;;;;;;21.65;68.09;98538.38;5031036;28;20204;-58
2023/09/02 04:36:43;;;;;;;4.47;4.07;;;;;;;21.50;68.10;98519.84;5030967;28;20182;-58
2023/09/02 04:39:09;;;;;;;8.57;4.40;;;;;;;21.36;68.27;98509.19;5031024;28;20190;-58
2023/09/02 04:41:36;;;;;;;4.68;4.20;;;;;;;21.66;68.21;98545.28;5030835;28;20362;-58
2023/09/02 04:44:01;;;;;;;4.90;4.40;;;;;;;21.73;67.90;98551.56;5030804;28;20200;-58
2023/09/02 04:46:27;;;;;;;5.40;4.38;;;;;;;21.82;67.54;98559.25;5030665;28;20273;-58
2023/09/02 04:48:52;;;;;;;5.97;4.97;;;;;;;21.80;67.63;98547.25;5030663;28;20744;-58
2023/09/02 04:51:18;;;;;;;7.85;4.40;;;;;;;21.77;67.40;98537.88;5030916;28;20193;-58
2023/09/02 04:53:43;;;;;;;5.07;4.50;;;;;;;21.82;67.68;98551.34;5030687;28;20209;-58
2023/09/02 04:56:09;;;;;;;5.00;4.50;;;;;;;21.91;67.54;98565.31;5030620;28;20730;-58
2023/09/02 04:58:35;;;;;;;7.60;4.95;;;;;;;21.69;67.67;98531.81;5030534;28;20276;-58
2023/09/02 05:01:13;;;;;;;7.05;4.82;;;;;;;21.67;67.81;98531.16;5030535;28;20265;-58
2023/09/02 05:03:38;;;;;;;5.38;4.15;;;;;;;21.77;67.93;98540.50;5047052;28;20193;-58
2023/09/02 05:06:07;;;;;;;5.00;4.25;;;;;;;21.95;67.39;98562.16;5050262;28;20617;-58
2023/09/02 05:08:34;;;;;;;4.80;4.15;;;;;;;22.00;66.67;98553.72;5050218;28;20248;-58
2023/09/02 05:11:00;;;;;;;5.50;4.43;;;;;;;22.00;66.92;98565.09;5050149;28;20193;-58
2023/09/02 05:13:25;;;;;;;5.25;4.35;;;;;;;21.88;66.42;98532.22;5050450;28;20181;-58
2023/09/02 05:15:50;;;;;;;4.20;3.80;;;;;;;22.16;66.09;98562.38;5048944;28;20197;-58
2023/09/02 05:18:16;;;;;;;6.43;4.35;;;;;;;22.14;65.88;98560.91;5050150;28;20626;-58
2023/09/02 05:20:41;;;;;;;4.70;4.28;;;;;;;22.06;65.69;98537.22;5050012;28;20169;-58
2023/09/02 05:23:07;;;;;;;5.60;4.45;;;;;;;22.12;65.50;98537.34;5050039;28;20185;-58
2023/09/02 05:25:32;;;;;;;4.90;4.40;;;;;;;22.21;65.13;98535.47;5049925;28;20670;-58
2023/09/02 05:27:57;;;;;;;4.80;4.38;;;;;;;22.33;64.94;98547.25;5049834;28;20190;-58
2023/09/02 05:30:23;;;;;;;5.00;4.22;;;;;;;22.41;64.56;98557.75;5049855;28;20185;-58
2023/09/02 05:32:48;;;;;;;4.88;4.28;;;;;;;22.38;64.19;98547.56;5049831;28;20260;-58
2023/09/02 05:35:14;;;;;;;4.80;3.95;;;;;;;22.67;63.77;98579.34;5049747;28;20201;-58
2023/09/02 05:37:39;;;;;;;5.55;4.45;;;;;;;22.67;63.74;98585.44;5049737;28;20594;-58
2023/09/02 05:40:05;;;;;;;5.65;3.78;;;;;;;22.50;63.78;98551.47;5047966;28;20210;-58
2023/09/02 05:42:31;;;;;;;4.65;4.25;;;;;;;22.63;63.29;98565.72;5032205;28;20659;-58
2023/09/02 05:44:56;;;;;;;8.65;3.97;;;;;;;22.64;63.44;98559.44;5032132;28;20182;-58
2023/09/02 05:47:21;;;;;;;4.95;4.10;;;;;;;22.77;62.68;98558.81;5032108;28;20274;-58
2023/09/02 05:49:47;;;;;;;8.40;4.05;;;;;;;22.87;62.35;98575.22;5031946;28;20229;-58
2023/09/02 05:52:12;;;;;;;4.50;3.83;;;;;;;22.73;62.29;98553.06;5032020;28;20189;-58
2023/09/02 05:54:38;;;;;;;6.10;4.13;;;;;;;22.76;62.00;98552.72;5031932;28;20172;-58
2023/09/02 05:57:03;;;;;;;4.05;3.67;;;;;;;22.98;62.02;98593.28;5032071;28;20181;-59
2023/09/02 05:59:29;;;;;;;4.53;3.95;;;;;;;22.90;62.66;98578.31;5031898;28;20208;-59
2023/09/02 06:01:56;;;;;;;6.25;3.97;;;;;;;22.93;61.96;98556.88;5031780;28;20183;-59
2023/09/02 06:04:22;;;;;;;5.22;4.40;;;;;;;23.16;61.31;98570.00;5031775;28;20181;-58
2023/09/02 06:06:47;;;;;;;3.88;3.58;;;;;;;23.33;60.58;98575.00;5031768;28;20641;-58
2023/09/02 06:09:12;;;;;;;4.22;3.90;;;;;;;23.42;59.83;98570.44;5031693;28;20209;-58
2023/09/02 06:11:38;;;;;;;4.03;3.53;;;;;;;23.58;59.13;98583.44;5031334;28;20174;-58
2023/09/02 06:14:03;;;;;;;4.65;4.20;;;;;;;23.50;58.85;98573.00;5031545;28;20181;-58
2023/09/02 06:16:29;;;;;;;4.07;3.67;;;;;;;23.73;58.18;98602.78;5031775;28;20181;-58
2023/09/02 06:18:54;;;;;;;4.05;3.75;;;;;;;23.73;58.18;98583.28;5031441;28;20181;-58
2023/09/02 06:21:19;;;;;;;4.38;3.90;;;;;;;23.88;57.72;98596.50;5031448;28;20178;-58
2023/09/02 06:23:45;;;;;;;4.35;3.38;;;;;;;23.85;57.26;98568.59;5031464;28;20552;-58
2023/09/02 06:26:11;;;;;;;5.35;3.70;;;;;;;23.96;57.17;98569.97;5031401;28;20178;-58
2023/09/02 06:28:37;;;;;;;5.38;4.00;;;;;;;24.24;56.73;98606.13;5030903;28;20248;-58
2023/09/02 06:31:10;;;;;;;3.88;3.30;;;;;;;24.19;56.36;98570.63;5031267;28;20206;-58
2023/09/02 06:33:36;;;;;;;5.30;3.75;;;;;;;24.30;55.52;98573.63;5031575;28;20177;-57
2023/09/02 06:36:16;;;;;;;3.83;3.40;;;;;;;24.46;55.73;98594.56;5031437;28;20185;-58
2023/09/02 06:38:42;;;;;;;3.90;3.50;;;;;;;24.58;54.73;98593.09;5031167;28;20579;-58
2023/09/02 06:41:15;;;;;;;4.15;3.85;;;;;;;24.78;54.53;98609.97;5031123;28;20186;-59
2023/09/02 06:43:41;;;;;;;4.20;3.83;;;;;;;24.68;54.20;98582.19;5031197;28;20174;-59
2023/09/02 06:46:17;;;;;;;5.32;3.53;;;;;;;24.93;53.25;98605.44;5031096;28;20174;-58
2023/09/02 06:48:44;;;;;;;5.40;3.65;;;;;;;25.18;52.99;98622.53;5031185;28;20299;-59
2023/09/02 06:51:09;;;;;;;4.68;3.80;;;;;;;25.08;53.08;98589.47;5031109;28;20181;-58
2023/09/02 06:53:35;;;;;;;5.65;3.78;;;;;;;25.21;52.81;98594.84;5030996;28;20184;-58
2023/09/02 06:56:01;;;;;;;3.92;3.58;;;;;;;25.38;52.52;98604.19;5030866;28;20182;-58
2023/09/02 06:58:26;;;;;;;6.82;3.85;;;;;;;25.48;52.40;98607.31;5030957;28;20184;-59
2023/09/02 07:00:52;;;;;;;3.90;3.40;;;;;;;25.65;52.34;98609.47;5030586;28;20182;-58
2023/09/02 07:03:17;;;;;;;4.07;3.65;;;;;;;25.69;52.62;98589.50;5030876;28;20645;-58
2023/09/02 07:05:42;;;;;;;4.13;3.72;;;;;;;25.91;52.37;98596.38;5030879;28;20767;-58
2023/09/02 07:08:08;;;;;;;3.97;3.45;;;;;;;26.09;51.66;98603.78;5030345;28;20181;-59
2023/09/02 07:10:33;;;;;;;3.08;2.88;;;;;;;26.28;50.67;98605.69;5030935;28;20284;-58
2023/09/02 07:12:58;;;;;;;3.40;3.10;;;;;;;26.25;50.35;98575.06;5028264;28;20276;-58
2023/09/02 07:15:24;;;;;;;3.60;3.30;;;;;;;26.55;50.21;98613.59;5028394;28;20699;-58
2023/09/02 07:17:49;;;;;;;3.25;2.88;;;;;;;26.58;49.59;98613.16;5028205;28;20231;-59
2023/09/02 07:20:15;;;;;;;8.93;3.53;;;;;;;26.49;49.70;98592.28;5028248;28;20618;-59
2023/09/02 07:22:40;;;;;;;4.43;3.80;;;;;;;26.67;49.80;98617.28;5028217;28;20197;-58
2023/09/02 07:25:06;;;;;;;4.60;3.60;;;;;;;26.60;50.18;98602.34;5028584;28;20185;-59
2023/09/02 07:27:32;;;;;;;4.70;3.03;;;;;;;26.55;49.79;98581.72;5028225;28;20181;-58
2023/09/02 07:29:59;;;;;;;3.35;3.05;;;;;;;26.85;50.00;98612.19;5028137;28;20331;-58
2023/09/02 07:32:24;;;;;;;3.28;2.97;;;;;;;27.00;49.71;98620.78;5028203;28;20190;-58
2023/09/02 07:34:50;;;;;;;5.32;3.47;;;;;;;27.02;49.46;98618.75;5028153;28;20186;-58
2023/09/02 07:37:15;;;;;;;3.38;3.03;;;;;;;27.05;49.46;98623.66;5028143;28;20295;-58
2023/09/02 07:39:41;;;;;;;3.42;3.13;;;;;;;27.15;49.26;98617.91;5029520;28;20252;-58
2023/09/02 07:42:06;;;;;;;3.78;2.90;;;;;;;27.05;48.76;98589.09;5032227;28;20372;-58
2023/09/02 07:44:32;;;;;;;4.32;3.20;;;;;;;27.18;48.39;98621.03;5033532;28;20224;-58
2023/09/02 07:46:57;;;;;;;3.78;3.35;;;;;;;27.21;48.49;98617.13;5034049;28;20257;-58
2023/09/02 07:49:23;;;;;;;2.95;2.67;;;;;;;27.08;48.27;98595.84;5034155;28;20201;-58
2023/09/02 07:51:48;;;;;;;7.40;3.45;;;;;;;27.19;48.02;98605.91;5034191;28;20224;-58
2023/09/02 07:54:14;;;;;;;4.07;3.20;;;;;;;27.28;48.16;98613.47;5034467;28;20259;-58
2023/09/02 07:56:40;;;;;;;2.90;2.60;;;;;;;27.44;47.72;98621.03;5034217;28;20277;-58
2023/09/02 07:59:06;;;;;;;3.03;2.80;;;;;;;27.54;47.18;98621.44;5034143;28;20188;-58
2023/09/02 08:01:32;;;;;;;6.63;2.95;;;;;;;27.64;47.15;98634.28;5034103;28;20170;-58
2023/09/02 08:03:57;;;;;;;3.15;2.80;;;;;;;27.59;46.64;98616.28;5034037;28;20265;-58
2023/09/02 08:06:23;;;;;;;3.83;2.90;;;;;;;27.85;45.90;98632.22;5033658;28;20170;-58
2023/09/02 08:08:48;;;;;;;6.78;3.20;;;;;;;27.79;45.59;98603.81;5033560;28;20292;-58
2023/09/02 08:11:18;;;;;;;4.65;3.17;;;;;;;27.99;45.70;98620.50;5034150;28;20651;-58
2023/09/02 08:13:44;;;;;;;4.18;3.08;;;;;;;27.73;45.04;98603.78;5033767;28;20239;-58
2023/09/02 08:16:09;;;;;;;6.00;3.00;;;;;;;27.83;45.12;98642.25;5051134;28;20605;-58
2023/09/02 08:18:35;;;;;;;2.90;2.70;;;;;;;27.86;44.69;98625.88;5051186;28;20297;-58
2023/09/02 08:21:01;;;;;;;3.40;3.10;;;;;;;27.83;44.45;98615.66;5051143;28;20189;-58
2023/09/02 08:23:26;;;;;;;2.90;2.70;;;;;;;27.92;45.21;98617.06;5051106;28;20231;-58
2023/09/02 08:25:52;;;;;;;4.10;3.03;;;;;;;28.02;44.54;98625.41;5050849;28;20188;-59
2023/09/02 08:28:17;;;;;;;3.30;3.00;;;;;;;28.14;44.38;98623.72;5050988;28;20181;-58
2023/09/02 08:30:44;;;;;;;5.47;3.15;;;;;;;28.16;44.47;98636.84;5050887;28;20648;-58
2023/09/02 08:33:09;;;;;;;3.15;2.90;;;;;;;28.05;44.46;98603.69;5051009;28;20181;-58
2023/09/02 08:35:37;;;;;;;3.15;2.95;;;;;;;28.27;43.46;98641.50;5050923;28;20289;-58
2023/09/02 08:38:06;;;;;;;2.95;2.75;;;;;;;28.18;42.98;98608.16;5050809;28;20213;-58
2023/09/02 08:40:32;;;;;;;3.28;2.97;;;;;;;28.33;42.50;98640.66;5050600;28;20221;-58
2023/09/02 08:43:01;;;;;;;4.03;2.88;;;;;;;28.35;42.64;98644.75;5050675;28;20204;-58
2023/09/02 08:45:29;;;;;;;3.17;2.63;;;;;;;28.26;42.74;98637.19;5050743;28;20254;-58
2023/09/02 08:48:02;;;;;;;5.55;3.03;;;;;;;28.17;42.86;98625.97;5034293;28;20561;-58
2023/09/02 08:50:28;;;;;;;5.45;2.97;;;;;;;28.13;42.79;98622.09;5030447;28;20236;-58
2023/09/02 08:52:55;;;;;;;3.63;3.15;;;;;;;28.12;43.03;98609.84;5030672;28;20284;-58
2023/09/02 08:55:21;;;;;;;2.33;2.22;;;;;;;28.08;42.84;98603.28;5030608;28;20214;-58
2023/09/02 08:57:47;;;;;;;4.38;2.75;;;;;;;28.26;42.73;98619.38;5030561;28;20217;-58
2023/09/02 09:00:12;;;;;;;2.65;2.47;;;;;;;28.49;41.87;98642.84;5030497;28;20680;-58
2023/09/02 09:02:40;;;;;;;2.65;2.45;;;;;;;28.53;42.61;98634.25;5030512;28;20240;-59
2023/09/02 09:05:07;;;;;;;2.78;2.53;;;;;;;28.57;41.89;98640.75;5030338;28;20268;-58
2023/09/02 09:07:34;;;;;;;5.63;3.17;;;;;;;28.62;41.83;98624.94;5030465;28;20192;-58
2023/09/02 09:10:00;;;;;;;4.13;2.42;;;;;;;28.49;41.68;98598.41;5030189;28;20739;-58
2023/09/02 09:12:28;;;;;;;3.58;2.28;;;;;;;28.58;41.25;98605.09;5032152;28;20748;-59
2023/09/02 09:14:54;;;;;;;4.40;2.75;;;;;;;28.68;41.73;98618.78;5032648;28;20257;-59
2023/09/02 09:17:20;;;;;;;2.92;2.72;;;;;;;28.77;41.35;98624.66;5032714;28;20636;-58
2023/09/02 09:19:46;;;;;;;3.13;2.53;;;;;;;28.89;40.36;98610.44;5032957;28;20272;-59
2023/09/02 09:22:11;;;;;;;4.15;2.75;;;;;;;28.89;40.95;98588.31;5032913;28;20301;-59
2023/09/02 09:24:36;;;;;;;4.35;2.40;;;;;;;28.98;39.99;98601.16;5032635;28;20169;-59
2023/09/02 09:27:06;;;;;;;3.45;2.80;;;;;;;28.91;39.90;98587.06;5032153;28;20189;-58
2023/09/02 09:29:42;;;;;;;4.95;2.55;;;;;;;29.00;40.49;98583.13;5032677;28;20266;-57
2023/09/02 09:32:11;;;;;;;3.55;2.65;;;;;;;29.24;40.52;98603.63;5032371;28;20177;-58
2023/09/02 09:34:44;;;;;;;2.42;2.30;;;;;;;29.25;39.33;98583.94;5032174;28;20666;-58
2023/09/02 09:37:10;;;;;;;4.22;2.88;;;;;;;29.39;39.27;98614.75;5032382;28;20225;-58
2023/09/02 09:39:51;;;;;;;6.38;2.60;;;;;;;29.23;38.84;98585.19;5032253;28;20676;-58
2023/09/02 09:42:20;;;;;;;2.60;2.45;;;;;;;29.46;39.08;98615.53;5032128;28;20190;-58
2023/09/02 09:44:56;;;;;;;5.80;2.75;;;;;;;29.42;38.42;98608.19;5032117;28;20515;-58
2023/09/02 09:47:23;;;;;;;2.78;2.58;;;;;;;29.52;38.53;98606.66;5032151;28;20181;-58
2023/09/02 09:49:52;;;;;;;2.90;2.70;;;;;;;29.54;37.70;98590.44;5031998;28;20205;-58
2023/09/02 09:52:19;;;;;;;4.45;2.63;;;;;;;29.62;38.22;98590.97;5032041;28;20234;-58
2023/09/02 09:54:47;;;;;;;2.80;2.60;;;;;;;29.79;37.37;98593.88;5032020;28;20236;-58
2023/09/02 09:57:31;;;;;;;3.63;2.92;;;;;;;29.61;37.47;98608.00;5031546;28;20676;-58
2023/09/02 09:59:57;;;;;;;4.47;2.50;;;;;;;29.57;37.74;98588.16;5031883;28;20588;-58
2023/09/02 10:02:23;;;;;;;3.05;2.72;;;;;;;29.61;37.09;98586.69;5031141;28;20185;-58
2023/09/02 10:04:56;;;;;;;9.07;3.08;;;;;;;29.62;37.26;98577.63;5031818;28;20170;-58
2023/09/02 10:07:32;;;;;;;2.88;2.67;;;;;;;29.99;36.46;98611.31;5031789;28;20182;-58
2023/09/02 10:10:03;;;;;;;2.65;2.45;;;;;;;29.85;36.28;98585.78;5048753;28;20615;-58
2023/09/02 10:12:34;;;;;;;2.85;2.65;;;;;;;29.99;36.79;98578.44;5048837;28;20500;-59
2023/09/02 10:15:01;;;;;;;2.60;2.40;;;;;;;30.06;36.27;98573.84;5049055;28;20767;-58
2023/09/02 10:17:27;;;;;;;2.47;2.25;;;;;;;30.18;35.99;98582.75;5048968;28;20705;-58
2023/09/02 10:19:53;;;;;;;5.50;2.72;;;;;;;30.36;36.79;98596.06;5048946;28;20574;-58
2023/09/02 10:22:21;;;;;;;3.08;2.50;;;;;;;30.35;35.42;98571.22;5048882;28;20188;-58
2023/09/02 10:25:02;;;;;;;3.25;2.33;;;;;;;30.55;34.22;98605.69;5048850;28;20264;-58
2023/09/02 10:27:36;;;;;;;3.75;2.28;;;;;;;30.49;35.03;98580.69;5048790;28;20246;-58
2023/09/02 10:30:02;;;;;;;2.60;2.40;;;;;;;30.50;34.74;98576.97;5048773;28;20236;-58
2023/09/02 10:32:58;;;;;;;3.00;2.70;;;;;;;30.75;34.19;98606.22;5049055;28;20192;-58
2023/09/02 10:35:28;;;;;;;2.97;2.70;;;;;;;30.67;34.47;98564.63;5048764;28;20910;-58
2023/09/02 10:37:56;;;;;;;2.88;2.55;;;;;;;30.76;34.44;98581.97;5048629;28;20189;-58
2023/09/02 10:40:25;;;;;;;2.60;2.35;;;;;;;31.07;34.33;98596.91;5048652;28;20263;-58
2023/09/02 10:42:51;;;;;;;4.22;2.67;;;;;;;31.29;34.20;98593.47;5048578;28;20185;-58
2023/09/02 10:45:17;;;;;;;4.18;2.65;;;;;;;31.56;33.62;98599.16;5048858;28;20247;-59
2023/09/02 10:47:44;;;;;;;2.75;2.25;;;;;;;31.61;32.68;98586.72;5037290;28;20198;-58
2023/09/02 10:50:10;;;;;;;2.75;2.55;;;;;;;31.62;32.43;98576.81;5031023;28;20201;-58
2023/09/02 10:52:36;;;;;;;5.20;2.35;;;;;;;31.87;31.72;98607.66;5030723;28;20541;-58
2023/09/02 10:55:03;;;;;;;3.58;2.40;;;;;;;31.70;32.18;98574.59;5030989;28;20184;-58
2023/09/02 10:57:30;;;;;;;5.50;2.33;;;;;;;31.78;32.31;98592.97;5031228;28;20645;-58
2023/09/02 11:00:24;;;;;;;2.50;2.30;;;;;;;31.97;31.41;98594.47;5030671;28;20257;-58
2023/09/02 11:02:54;;;;;;;3.70;2.72;;;;;;;31.96;31.87;98579.47;5031005;28;20644;-58
2023/09/02 11:05:21;;;;;;;2.20;2.10;;;;;;;31.96;32.02;98579.47;5030991;28;20174;-58
2023/09/02 11:07:48;;;;;;;3.17;2.88;;;;;;;31.74;31.79;98575.78;5030817;28;20182;-58
2023/09/02 11:10:15;;;;;;;4.10;2.80;;;;;;;31.57;31.55;98563.31;5030464;28;20212;-58
2023/09/02 11:12:58;;;;;;;2.70;2.50;;;;;;;31.78;30.78;98592.19;5030774;28;20288;-58
2023/09/02 11:15:24;;;;;;;3.28;2.40;;;;;;;31.61;30.81;98551.94;5034730;28;20227;-58
2023/09/02 11:17:50;;;;;;;3.50;2.97;;;;;;;31.46;30.79;98551.59;5034963;28;20189;-58
2023/09/02 11:20:19;;;;;;;2.30;2.10;;;;;;;31.71;30.99;98578.09;5035185;28;20178;-58
2023/09/02 11:22:54;;;;;;;2.47;2.38;;;;;;;32.02;31.07;98578.53;5034822;28;20204;-58
2023/09/02 11:25:39;;;;;;;3.30;2.70;;;;;;;32.19;30.60;98574.03;5034839;28;20208;-58
2023/09/02 11:28:09;;;;;;;2.38;2.28;;;;;;;31.90;30.53;98552.81;5034791;28;20201;-58
2023/09/02 11:30:37;;;;;;;2.65;2.45;;;;;;;31.98;30.50;98561.28;5034289;28;20212;-58
2023/09/02 11:33:02;;;;;;;2.95;2.45;;;;;;;32.22;31.26;98559.34;5034745;28;20177;-58
2023/09/02 11:35:36;;;;;;;2.25;2.13;;;;;;;32.49;30.48;98563.09;5034420;28;20617;-58